Meteorología y climatología de Navarra
Datos de la estación - Meteo Navarra

Estación de Tafalla GN

Altitud 430 m.


Datos desde el 07/12/2018 hasta el 08/12/2018 en horario solar
Los datos son PROVISIONALES

Anterior Página 1 de 1 Siguiente Descargar: Formato para Excel 2000 o superior   Formato csv   Formato para OpenOffice Calc
Fecha Temperatura Humedad relativa Radiación global Insolación Precipitación Vel. viento 10 m Vel. viento 10 m Dir. viento 10 m
ºC % W/m² s l/m² m/s km/h º
07/12/2018 0:00 8.5 80 0.0 0 0.0 3.7 13.4 310
07/12/2018 0:10 8.5 81 0.0 0 0.0 3.5 12.7 311
07/12/2018 0:20 8.6 80 0.0 0 0.0 3.6 12.9 312
07/12/2018 0:30 8.2 81 0.0 0 0.0 2.8 9.9 318
07/12/2018 0:40 7.8 83 0.0 0 0.0 3.2 11.3 301
07/12/2018 0:50 5.8 89 0.0 0 0.0 3.0 10.9 270
07/12/2018 1:00 5.1 92 0.0 0 0.0 3.6 12.8 274
07/12/2018 1:10 5.1 93 0.0 0 0.0 3.7 13.4 273
07/12/2018 1:20 5.0 93 0.0 0 0.0 3.7 13.1 277
07/12/2018 1:30 4.8 93 0.0 0 0.0 3.8 13.8 279
07/12/2018 1:40 4.6 94 0.0 0 0.0 3.6 12.9 282
07/12/2018 1:50 4.6 95 0.0 0 0.0 3.1 11.2 278
07/12/2018 2:00 4.6 95 0.0 0 0.0 2.5 9.0 280
07/12/2018 2:10 4.7 94 0.0 0 0.0 2.4 8.5 287
07/12/2018 2:20 4.8 94 0.0 0 0.0 2.5 9.0 284
07/12/2018 2:30 4.8 93 0.0 0 0.0 2.4 8.6 290
07/12/2018 2:40 5.2 91 0.0 0 0.0 2.0 7.1 297
07/12/2018 2:50 4.9 90 0.0 0 0.0 1.8 6.3 302
07/12/2018 3:00 4.8 91 0.0 0 0.0 1.9 6.9 304
07/12/2018 3:10 4.5 92 0.0 0 0.0 2.0 7.3 303
07/12/2018 3:20 4.7 92 0.0 0 0.0 2.0 7.2 301
07/12/2018 3:30 4.4 92 0.0 0 0.0 1.5 5.2 311
07/12/2018 3:40 3.9 93 0.0 0 0.0 0.6 2.1 14
07/12/2018 3:50 3.4 94 0.0 0 0.0 0.5 1.9 6
07/12/2018 4:00 3.2 94 0.0 0 0.0 0.2 0.7 8
07/12/2018 4:10 3.2 95 0.0 0 0.0 0.7 2.5 12
07/12/2018 4:20 2.8 95 0.0 0 0.0 1.5 5.4 37
07/12/2018 4:30 3.1 95 0.0 0 0.0 1.6 5.7 18
07/12/2018 4:40 3.1 95 0.0 0 0.0 0.9 3.1 18
07/12/2018 4:50 2.9 95 0.0 0 0.0 0.4 1.5 344
07/12/2018 5:00 2.5 95 0.0 0 0.0 0.6 2.1 17
07/12/2018 5:10 2.7 96 0.0 0 0.0 1.8 6.3 17
07/12/2018 5:20 2.4 95 0.0 0 0.0 1.1 4.0 16
07/12/2018 5:30 2.8 95 0.0 0 0.0 3.4 12.2 15
07/12/2018 5:40 3.2 93 0.0 0 0.0 3.5 12.6 11
07/12/2018 5:50 3.3 92 0.0 0 0.0 2.7 9.7 16
07/12/2018 6:00 2.8 93 0.0 0 0.0 2.1 7.4 32
07/12/2018 6:10 2.6 94 0.0 0 0.0 2.4 8.6 14
07/12/2018 6:20 2.7 94 0.0 0 0.0 2.3 8.4 20
07/12/2018 6:30 2.1 94 0.0 0 0.0 2.2 8.0 24
07/12/2018 6:40 2.3 95 0.0 0 0.0 2.0 7.2 9
07/12/2018 6:50 2.0 94 0.0 0 0.0 2.2 7.7 29
07/12/2018 7:00 1.7 95 0.0 0 0.0 3.5 12.5 25
07/12/2018 7:10 2.2 94 0.0 0 0.0 3.8 13.6 19
07/12/2018 7:20 1.9 94 0.0 0 0.0 2.5 8.9 20
07/12/2018 7:30 2.0 94 0.0 0 0.0 2.4 8.8 12
07/12/2018 7:40 2.6 93 13.9 0 0.0 1.0 3.7 357
07/12/2018 7:50 2.9 91 34.1 448 0.0 0.8 2.7 16
07/12/2018 8:00 2.9 91 54.1 600 0.0 2.6 9.2 24
07/12/2018 8:10 3.0 91 77.7 600 0.0 2.7 9.6 19
07/12/2018 8:20 3.3 91 102.4 600 0.0 2.7 9.6 16
07/12/2018 8:30 3.5 89 129.1 600 0.0 3.0 10.9 20
07/12/2018 8:40 3.9 88 155.4 600 0.0 2.5 9.0 22
07/12/2018 8:50 4.2 88 178.7 600 0.0 1.3 4.6 31
07/12/2018 9:00 5.0 88 198.8 600 0.0 1.0 3.6 356
07/12/2018 9:10 5.7 84 217.7 600 0.0 0.4 1.4 293
07/12/2018 9:20 5.5 88 238.3 600 0.0 0.9 3.3 287
07/12/2018 9:30 5.6 89 259.0 600 0.0 0.7 2.4 289
07/12/2018 9:40 6.2 87 276.9 600 0.0 0.3 1.1 297
07/12/2018 9:50 6.7 85 293.5 600 0.0 0.9 3.2 267
07/12/2018 10:00 7.0 85 310.8 600 0.0 0.6 2.2 193
07/12/2018 10:10 7.5 81 327.8 600 0.0 0.2 0.5 316
07/12/2018 10:20 8.4 77 343.5 600 0.0 0.5 1.9 288
07/12/2018 10:30 8.0 77 358.5 600 0.0 1.0 3.6 300
07/12/2018 10:40 8.6 78 377.7 600 0.0 0.9 3.3 252
07/12/2018 10:50 9.0 74 388.4 600 0.0 1.0 3.6 206
07/12/2018 11:00 8.8 73 403.1 600 0.0 1.0 3.5 250
07/12/2018 11:10 8.6 76 413.5 600 0.0 1.4 4.9 274
07/12/2018 11:20 9.0 76 422.9 600 0.0 1.3 4.6 252
07/12/2018 11:30 9.7 75 427.0 600 0.0 1.0 3.6 215
07/12/2018 11:40 9.9 73 432.0 600 0.0 0.8 2.8 283
07/12/2018 11:50 9.8 70 443.4 600 0.0 0.6 2.1 32
07/12/2018 12:00 10.3 68 416.6 600 0.0 0.8 3.0 170
07/12/2018 12:10 10.4 69 435.9 600 0.0 0.8 2.7 185
07/12/2018 12:20 10.7 67 431.1 600 0.0 0.8 2.8 160
07/12/2018 12:30 10.7 66 424.3 600 0.0 0.4 1.5 125
07/12/2018 12:40 11.2 64 417.7 600 0.0 0.5 1.9 193
07/12/2018 12:50 11.4 63 408.0 600 0.0 0.3 1.1 241
07/12/2018 13:00 11.5 63 401.9 600 0.0 1.5 5.4 241
07/12/2018 13:10 11.7 64 392.3 600 0.0 1.4 5.0 238
07/12/2018 13:20 12.0 63 382.0 600 0.0 1.4 5.0 263
07/12/2018 13:30 11.8 63 372.8 600 0.0 2.1 7.5 292
07/12/2018 13:40 11.9 63 366.6 600 0.0 2.0 7.3 284
07/12/2018 13:50 12.0 63 348.1 600 0.0 2.4 8.7 303
07/12/2018 14:00 12.0 61 329.8 600 0.0 2.2 7.9 293
07/12/2018 14:10 12.1 61 251.6 426 0.0 1.7 6.1 291
07/12/2018 14:20 12.1 61 281.7 502 0.0 1.2 4.2 327
07/12/2018 14:30 12.5 60 268.5 600 0.0 1.0 3.6 328
07/12/2018 14:40 12.5 60 247.2 600 0.0 1.7 6.3 293
07/12/2018 14:50 12.6 60 225.4 600 0.0 1.5 5.3 311
07/12/2018 15:00 12.6 61 203.6 600 0.0 2.6 9.2 318
07/12/2018 15:10 12.5 62 179.6 600 0.0 2.8 10.0 322
07/12/2018 15:20 12.5 62 157.1 600 0.0 2.3 8.3 319
07/12/2018 15:30 12.6 61 134.8 600 0.0 2.0 7.1 352
07/12/2018 15:40 12.6 62 133.8 584 0.0 1.7 6.1 342
07/12/2018 15:50 12.6 62 41.5 0 0.0 2.1 7.7 334
07/12/2018 16:00 12.3 65 27.3 0 0.0 1.4 5.0 343
07/12/2018 16:10 12.2 65 20.8 0 0.0 0.9 3.2 349
07/12/2018 16:20 12.1 65 2.1 0 0.0 0.8 3.0 314
07/12/2018 16:30 11.9 68 0.0 0 0.0 1.1 3.8 302
07/12/2018 16:40 11.9 68 0.0 0 0.0 1.0 3.7 327
07/12/2018 16:50 11.8 68 0.0 0 0.0 1.4 5.1 322
07/12/2018 17:00 11.9 67 0.0 0 0.0 1.2 4.2 322
07/12/2018 17:10 11.9 68 0.0 0 0.0 1.4 4.9 295
07/12/2018 17:20 11.4 72 0.0 0 0.0 2.0 7.2 297
07/12/2018 17:30 11.3 72 0.0 0 0.0 1.6 5.9 281
07/12/2018 17:40 11.1 74 0.0 0 0.0 1.9 6.9 288
07/12/2018 17:50 11.0 74 0.0 0 0.0 2.3 8.2 272
07/12/2018 18:00 10.7 76 0.0 0 0.0 1.8 6.3 270
07/12/2018 18:10 10.5 77 0.0 0 0.0 0.7 2.6 308
07/12/2018 18:20 10.8 75 0.0 0 0.0 1.3 4.7 291
07/12/2018 18:30 10.7 75 0.0 0 0.0 1.5 5.4 284
07/12/2018 18:40 11.0 72 0.0 0 0.0 2.8 10.0 311
07/12/2018 18:50 11.2 71 0.0 0 0.0 2.9 10.4 299
07/12/2018 19:00 11.1 72 0.0 0 0.0 3.0 10.7 295
07/12/2018 19:10 11.0 73 0.0 0 0.0 3.8 13.6 299
07/12/2018 19:20 11.0 73 0.0 0 0.0 4.2 15.0 302
07/12/2018 19:30 10.8 75 0.0 0 0.0 3.9 14.0 305
07/12/2018 19:40 10.6 76 0.0 0 0.0 3.6 12.9 304
07/12/2018 19:50 10.5 77 0.0 0 0.0 3.3 12.0 301
07/12/2018 20:00 10.4 78 0.0 0 0.0 3.5 12.7 296
07/12/2018 20:10 10.7 76 0.0 0 0.0 5.0 18.1 301
07/12/2018 20:20 11.2 74 0.0 0 0.0 5.6 20.2 304
07/12/2018 20:30 11.2 73 0.0 0 0.0 5.1 18.5 311
07/12/2018 20:40 11.3 72 0.0 0 0.0 6.1 21.9 303
07/12/2018 20:50 11.1 72 0.0 0 0.0 5.2 18.8 308
07/12/2018 21:00 10.9 74 0.0 0 0.0 4.4 15.7 317
07/12/2018 21:10 10.8 74 0.0 0 0.0 5.1 18.3 308
07/12/2018 21:20 10.9 73 0.0 0 0.0 5.1 18.3 307
07/12/2018 21:30 10.9 74 0.0 0 0.0 4.3 15.4 309
07/12/2018 21:40 10.7 76 0.0 0 0.0 4.3 15.4 324
07/12/2018 21:50 10.6 76 0.0 0 0.0 4.0 14.4 337
07/12/2018 22:00 10.3 78 0.0 0 0.0 2.8 10.2 349
07/12/2018 22:10 9.9 81 0.0 0 0.0 2.3 8.4 352
07/12/2018 22:20 9.7 82 0.0 0 0.0 2.2 7.8 348
07/12/2018 22:30 9.6 81 0.0 0 0.0 1.8 6.5 352
07/12/2018 22:40 9.4 81 0.0 0 0.0 3.6 13.0 10
07/12/2018 22:50 9.2 81 0.0 0 0.0 3.6 12.8 6
07/12/2018 23:00 9.0 81 0.0 0 0.0 3.9 13.9 7
07/12/2018 23:10 8.8 82 0.0 0 0.0 2.8 10.2 359
07/12/2018 23:20 8.6 83 0.0 0 0.0 2.3 8.4 354
07/12/2018 23:30 8.6 83 0.0 0 0.0 2.0 7.0 346
07/12/2018 23:40 8.5 84 0.0 0 0.0 2.8 10.2 6
07/12/2018 23:50 8.4 84 0.0 0 0.0 2.9 10.5 11
Anterior Página 1 de 1 Siguiente

NOTA: Tipo de datos según el color:
   - Valores diarios o 10 minutos correctos
   - Valores diarios calculados a partir de un número de datos 10 minutos menor que 144 y mayor que 120, o de un número de datos semihorarios menor que 48 y mayor que 40 (caso de las estaciones de Riegos de Navarra y del MARM)
   - Valores diez minutos estimados


Contacto        Enlaces        Aviso legal